Roslyn Heights, NY

11:41 PM EDT on July 04, 2015 (GMT -0400)
New York Institute of Technology | | Change Station
CLOSE
Current Station
Personal Weather Station
Location: Old Westbury, NY
Elevation: 194 ft
Nearby Weather Stations

Elev 194 ft 40.81 °N, 73.61 °W | Updated 55 seconds ago

Scattered Clouds
Scattered Clouds
66.4 °F
Feels Like 66.4 °F
N
0.0
Wind Variable Wind from SSW
Gusts 4.0 mph

Today
High -- | Low -- °F
--% Chance of Precip.
Yesterday
High -- | Low -- °F
Precip. -- in
5:28 AM 8:29 PM
Waning Gibbous, 88% visible
Pressure 30.01 in
Visibility 10.0 miles
Clouds Scattered Clouds 4600 ft
Dew Point 59 °F
Humidity 79%
Rainfall 0.00 in
Snow Depth Not available.
UV 0 out of 12
Pollen .60 out of 12
Air Quality Not available.
Flu Activity Not available.
METAR KLGA 050251Z 19005KT 10SM SCT046 22/14 A3000 RMK AO2 SLP160 T02220144 53015

More Conditions Fewer Conditions

Pressure 30.01 in
Visibility 10.0 miles
Clouds Scattered Clouds 4600 ft
Dew Point 59 °F
Humidity 79%
Rainfall 0.00 in
Snow Depth Not available.
UV 0 out of 12
Pollen .60 out of 12
Air Quality Not available.
Flu Activity Not available.
METAR KLGA 050251Z 19005KT 10SM SCT046 22/14 A3000 RMK AO2 SLP160 T02220144 53015

More Conditions Fewer Conditions

10-Day Weather Forecast

×

Almanac

Astronomy

Jul. 04, 2015 Rise Set
Actual Time
Civil Twilight
Nautical Twilight
Astronomical Twilight
Moon
Length of Visible Light
Length of Day
Tomorrow will be .
, % of the Moon is Illuminated

Today's Extremes

State Highs State Lows

Community

WunderPhotos

Upload Photos

1,835,193 photos uploaded!

WunderBlogs® & News

Nearby

Air Quality

  Air Quality AQ Index Pollutant
Not available.

Snow Depth

Station Depth Elevation

Earthquake Activity

City Distance Mag. Time & Date
Minimum magnitude displayed is 2.5.

Coastal Water Temperatures

Place Temperature

Stations

Nearby Weather Stations

Station Location Temp. Windchill Dew Point Humidity Wind Precip. Elev Updated Type